Time;durP1;ratioP1;P1;durP2;ratioP2;P2;SDS_P1;SDS_P2;PMS_P1;PMS_P2;Temp;Humidity;BMP_temperature;BMP_pressure;BME280_temperature;BME280_humidity;BME280_pressure;Samples;Min_cycle;Max_cycle;Signal;HPM_P1;HPM_P2
2022/11/10 00:07:49;;;;;;;5.65;2.08;;;;;;;8.96;100.00;100894.84;21002240;28;20044;-66
2022/11/10 00:18:11;;;;;;;6.20;1.55;;;;;;;8.83;100.00;100899.06;20969301;28;20041;-66
2022/11/10 00:28:33;;;;;;;;;;;;;;;8.80;100.00;100914.81;21001166;28;20452;-67
2022/11/10 00:38:55;;;;;;;9.60;2.00;;;;;;;8.76;100.00;100928.91;20999670;28;19920;-66
2022/11/10 00:49:16;;;;;;;;;;;;;;;8.72;100.00;100926.56;20990208;28;20047;-66
2022/11/10 00:59:38;;;;;;;7.40;2.27;;;;;;;8.56;100.00;100935.31;20993971;22;19925;-76
2022/11/10 01:10:00;;;;;;;8.75;2.55;;;;;;;8.41;100.00;100946.53;20807523;28;20065;-73
2022/11/10 01:20:23;;;;;;;8.00;3.10;;;;;;;8.43;100.00;100970.66;20878855;28;20471;-74
2022/11/10 01:30:45;;;;;;;7.38;3.13;;;;;;;8.23;100.00;100978.66;20888515;28;20032;-74
2022/11/10 01:41:09;;;;;;;12.77;3.55;;;;;;;8.23;100.00;100987.25;20896828;28;20052;-74
2022/11/10 01:51:37;;;;;;;15.18;3.45;;;;;;;8.08;100.00;100992.41;20895647;28;20041;-73
2022/11/10 02:02:09;;;;;;;11.73;3.78;;;;;;;8.12;100.00;101012.09;20894132;28;20111;-75
2022/11/10 02:12:37;;;;;;;21.10;3.70;;;;;;;8.22;100.00;101023.72;20895690;28;20045;-74
2022/11/10 02:23:11;;;;;;;10.57;4.18;;;;;;;8.01;100.00;101024.75;20888508;28;20048;-73
2022/11/10 02:33:33;;;;;;;14.23;4.00;;;;;;;7.98;100.00;101017.16;20887772;28;20037;-74
2022/11/10 02:43:55;;;;;;;;;;;;;;;8.07;100.00;101024.47;20894186;28;20124;-74
2022/11/10 02:54:17;;;;;;;14.40;3.97;;;;;;;8.04;100.00;101054.03;20896548;28;19968;-75
2022/11/10 03:04:39;;;;;;;20.60;4.70;;;;;;;7.95;100.00;101071.81;20886196;28;20041;-74
2022/11/10 03:15:01;;;;;;;17.98;4.53;;;;;;;8.00;100.00;101067.25;20885446;28;20048;-74
2022/11/10 03:25:23;;;;;;;15.32;4.20;;;;;;;8.08;100.00;101088.44;20880913;28;20051;-73
2022/11/10 03:35:45;;;;;;;17.08;4.53;;;;;;;7.91;100.00;101096.22;20890514;28;20048;-69
2022/11/10 03:46:07;;;;;;;17.58;4.20;;;;;;;7.93;100.00;101110.81;20875525;28;20049;-69
2022/11/10 03:56:29;;;;;;;15.23;4.82;;;;;;;7.85;100.00;101115.53;20879667;28;20161;-68
2022/11/10 04:17:31;;;;;;;12.60;4.47;;;;;;;7.63;100.00;101146.97;20880889;28;20053;-69
2022/11/10 04:27:53;;;;;;;18.35;4.57;;;;;;;7.69;100.00;101168.25;20880171;28;20110;-69
2022/11/10 04:38:15;;;;;;;14.73;4.25;;;;;;;7.59;100.00;101195.53;20895961;28;20045;-69
2022/11/10 04:48:36;;;;;;;13.43;5.20;;;;;;;7.67;100.00;101185.66;20885346;28;20390;-69
2022/11/10 04:58:58;;;;;;;19.00;6.13;;;;;;;7.64;100.00;101198.75;20886614;28;20415;-69
2022/11/10 05:09:20;;;;;;;19.05;6.13;;;;;;;7.67;100.00;101206.41;20893099;28;20682;-69
2022/11/10 05:19:42;;;;;;;14.35;6.03;;;;;;;7.61;100.00;101217.06;20897424;28;20506;-69
2022/11/10 05:30:04;;;;;;;22.65;6.72;;;;;;;7.60;100.00;101210.19;20898114;28;20053;-69
2022/11/10 05:40:27;;;;;;;22.75;6.97;;;;;;;7.78;100.00;101217.13;20894058;28;20041;-69
2022/11/10 05:50:48;;;;;;;21.35;8.27;;;;;;;7.75;100.00;101204.28;20892330;28;20258;-69
2022/11/10 06:01:10;;;;;;;17.85;8.00;;;;;;;7.85;100.00;101237.50;20892892;28;20049;-69
2022/11/10 06:11:32;;;;;;;22.88;9.50;;;;;;;7.92;100.00;101266.63;20893445;28;20397;-69
2022/11/10 06:21:54;;;;;;;24.38;9.27;;;;;;;7.93;100.00;101287.31;20885356;28;20044;-69
2022/11/10 06:32:24;;;;;;;26.45;11.20;;;;;;;8.10;100.00;101313.31;20887042;28;20401;-68
2022/11/10 06:42:46;;;;;;;25.33;9.73;;;;;;;8.26;100.00;101331.66;20891572;28;20041;-69
2022/11/10 06:53:08;;;;;;;27.75;10.02;;;;;;;8.38;100.00;101320.69;20889040;28;20103;-69
2022/11/10 07:03:30;;;;;;;22.10;9.88;;;;;;;8.41;100.00;101330.94;20924669;22;20422;-63
2022/11/10 07:13:52;;;;;;;27.10;9.77;;;;;;;8.58;100.00;101351.78;20979345;28;20045;-63
2022/11/10 07:24:13;;;;;;;20.80;9.93;;;;;;;8.66;100.00;101372.09;21011957;28;20532;-62
2022/11/10 07:34:35;;;;;;;27.42;10.20;;;;;;;8.74;100.00;101414.16;21018203;28;20422;-64
2022/11/10 07:44:57;;;;;;;29.58;10.15;;;;;;;8.71;100.00;101447.25;21021537;28;20430;-62
2022/11/10 07:55:19;;;;;;;26.70;10.10;;;;;;;8.65;100.00;101427.59;21031012;28;20051;-63
2022/11/10 08:05:41;;;;;;;22.15;10.10;;;;;;;8.75;100.00;101436.63;21007821;28;20048;-64
2022/11/10 08:16:03;;;;;;;29.33;9.60;;;;;;;8.76;100.00;101451.31;21010109;28;20037;-63
2022/11/10 08:26:25;;;;;;;21.42;9.10;;;;;;;8.91;100.00;101466.19;21024628;28;20041;-65
2022/11/10 08:36:47;;;;;;;21.40;8.68;;;;;;;9.16;100.00;101458.91;21028773;28;20036;-64
2022/11/10 08:47:09;;;;;;;27.75;9.85;;;;;;;9.34;100.00;101478.81;21053487;28;20177;-63
2022/11/10 08:57:31;;;;;;;19.73;8.00;;;;;;;9.45;100.00;101471.34;21030171;28;20290;-62
2022/11/10 09:07:53;;;;;;;20.50;7.55;;;;;;;9.80;100.00;101475.59;21017433;28;20094;-62
2022/11/10 09:18:16;;;;;;;23.10;6.30;;;;;;;10.11;100.00;101510.44;21041598;28;20074;-63
2022/11/10 09:28:37;;;;;;;22.00;6.60;;;;;;;10.15;100.00;101506.75;21049765;28;20118;-62
2022/11/10 09:38:59;;;;;;;;;;;;;;;10.24;100.00;101521.06;21096919;28;20036;-62
2022/11/10 09:49:32;;;;;;;22.57;6.67;;;;;;;10.43;100.00;101537.44;21042353;28;19924;-63
2022/11/10 09:59:54;;;;;;;22.60;6.40;;;;;;;10.68;100.00;101549.91;21009166;28;20531;-63
2022/11/10 10:10:36;;;;;;;;;;;;;;;10.68;100.00;101565.56;21055948;28;20048;-62
2022/11/10 10:21:20;;;;;;;21.23;6.07;;;;;;;10.74;100.00;101573.06;21027973;28;19935;-62
2022/11/10 10:31:46;;;;;;;19.10;5.78;;;;;;;10.88;100.00;101573.16;21025939;28;20044;-64
2022/11/10 10:42:40;;;;;;;18.25;4.93;;;;;;;10.96;100.00;101570.16;21020991;28;20545;-64
2022/11/10 10:53:14;;;;;;;20.40;4.72;;;;;;;11.37;98.70;101586.97;21020085;28;20063;-64
2022/11/10 11:03:38;;;;;;;15.30;4.75;;;;;;;11.42;98.81;101611.91;21017918;28;20041;-63
2022/11/10 11:14:23;;;;;;;21.02;3.88;;;;;;;11.48;98.45;101628.06;21023379;28;20068;-66
2022/11/10 11:24:54;;;;;;;17.88;3.70;;;;;;;11.64;97.26;101634.16;21014896;28;20123;-64
2022/11/10 11:35:25;;;;;;;17.47;3.10;;;;;;;11.85;95.83;101634.72;21018238;28;20066;-63
2022/11/10 11:46:19;;;;;;;15.23;2.77;;;;;;;11.97;94.88;101641.84;21016855;28;20423;-64
2022/11/10 11:56:46;;;;;;;19.30;3.15;;;;;;;12.05;95.36;101665.78;21027997;28;20127;-63
2022/11/10 12:07:16;;;;;;;16.23;2.72;;;;;;;12.13;93.49;101674.00;21026671;28;20118;-64
2022/11/10 12:18:04;;;;;;;13.90;2.45;;;;;;;12.25;93.47;101674.16;21010841;28;20041;-63
2022/11/10 12:28:33;;;;;;;17.42;2.60;;;;;;;12.19;93.49;101684.97;20988725;28;20064;-63
2022/11/10 12:39:13;;;;;;;18.25;2.40;;;;;;;12.16;93.66;101687.75;21010136;28;20474;-63
2022/11/10 12:49:37;;;;;;;19.73;2.88;;;;;;;12.19;93.94;101694.59;21004844;28;20036;-62
2022/11/10 13:00:01;;;;;;;12.80;2.67;;;;;;;12.19;94.04;101711.09;21023714;28;20052;-63
2022/11/10 13:10:26;;;;;;;17.23;2.30;;;;;;;12.21;93.85;101718.88;20930431;22;20052;-72
2022/11/10 13:20:53;;;;;;;15.23;2.50;;;;;;;12.29;92.80;101717.50;20911318;28;20033;-72
2022/11/10 13:31:38;;;;;;;13.90;2.65;;;;;;;12.39;92.80;101709.94;20949183;28;20052;-72
2022/11/10 13:42:06;;;;;;;20.50;2.33;;;;;;;12.44;92.30;101705.31;20945761;28;20041;-71
2022/11/10 13:52:50;;;;;;;11.35;1.92;;;;;;;12.46;91.93;101703.44;20954756;28;20049;-71
2022/11/10 14:03:43;;;;;;;12.65;2.28;;;;;;;12.42;93.06;101696.69;20941900;28;20109;-72
2022/11/10 14:14:20;;;;;;;12.57;2.10;;;;;;;12.41;92.58;101711.56;20944632;28;20052;-71
2022/11/10 14:24:52;;;;;;;18.63;2.50;;;;;;;12.43;92.19;101703.63;20938734;28;20040;-72
2022/11/10 14:35:21;;;;;;;15.82;2.15;;;;;;;12.47;92.35;101732.09;20952551;28;20045;-72
2022/11/10 14:45:50;;;;;;;13.73;2.00;;;;;;;12.47;92.17;101734.72;20936438;28;20063;-71
2022/11/10 14:56:16;;;;;;;19.17;2.42;;;;;;;12.48;91.94;101755.56;20933506;28;20041;-71
2022/11/10 15:06:38;;;;;;;14.60;2.85;;;;;;;12.46;91.93;101756.56;20942572;28;20056;-72
2022/11/10 15:17:10;;;;;;;10.45;2.10;;;;;;;12.40;92.58;101772.63;20936024;28;20146;-71
2022/11/10 15:27:32;;;;;;;12.90;2.17;;;;;;;12.34;92.84;101793.06;20931097;28;20063;-71
2022/11/10 15:38:23;;;;;;;12.18;1.77;;;;;;;12.32;93.05;101847.19;20939979;28;20670;-71
2022/11/10 15:48:49;;;;;;;15.18;2.22;;;;;;;12.28;92.74;101815.16;20935967;28;20048;-70
2022/11/10 15:59:11;;;;;;;18.63;2.38;;;;;;;12.27;92.80;101807.38;20936442;28;20052;-69
2022/11/10 16:09:33;;;;;;;15.85;2.30;;;;;;;12.24;92.79;101825.84;20941602;28;20051;-70
2022/11/10 16:19:55;;;;;;;13.68;2.20;;;;;;;12.16;92.17;101825.44;20933888;28;20067;-74
2022/11/10 16:30:17;;;;;;;13.30;2.25;;;;;;;12.08;92.03;101851.19;20931333;28;20041;-74
2022/11/10 16:40:39;;;;;;;5.72;1.85;;;;;;;12.03;92.11;101837.50;20933184;28;20542;-73
2022/11/10 16:51:01;;;;;;;13.65;1.95;;;;;;;11.98;92.01;101844.72;20936401;28;20048;-75
2022/11/10 17:01:26;;;;;;;10.10;1.85;;;;;;;11.98;92.05;101845.59;20951699;28;20044;-74
2022/11/10 17:11:48;;;;;;;8.50;2.00;;;;;;;11.98;91.75;101863.03;20945581;28;20748;-73
2022/11/10 17:22:15;;;;;;;9.25;2.00;;;;;;;12.01;91.30;101862.88;20946365;28;20036;-72
2022/11/10 17:32:37;;;;;;;14.55;1.65;;;;;;;11.98;91.16;101852.56;20861193;22;20162;-74
2022/11/10 17:43:19;;;;;;;10.52;1.88;;;;;;;12.01;90.33;101865.47;20915087;28;20547;-74
2022/11/10 17:53:42;;;;;;;18.38;2.17;;;;;;;12.01;89.97;101870.72;20924257;28;20398;-73
2022/11/10 18:04:04;;;;;;;11.13;1.60;;;;;;;12.10;88.95;101888.50;20916407;28;20049;-73
2022/11/10 18:14:26;;;;;;;8.93;1.75;;;;;;;12.02;89.03;101890.69;20911713;28;20044;-72
2022/11/10 18:24:48;;;;;;;10.98;1.48;;;;;;;11.92;89.46;101863.38;20939451;28;20495;-73
2022/11/10 18:35:10;;;;;;;11.40;1.58;;;;;;;11.85;88.65;101867.22;20942190;28;20059;-75
2022/11/10 18:45:31;;;;;;;16.30;1.85;;;;;;;11.87;88.38;101892.34;20921490;28;20045;-74
2022/11/10 18:55:54;;;;;;;9.48;1.50;;;;;;;11.84;87.64;101889.06;20897013;28;20040;-74
2022/11/10 19:06:17;;;;;;;9.68;1.90;;;;;;;11.66;87.42;101882.16;21832834;22;20506;-73
2022/11/10 19:16:38;;;;;;;9.93;1.65;;;;;;;11.35;88.69;101884.66;20962934;22;20058;-65
2022/11/10 19:27:00;;;;;;;9.32;1.75;;;;;;;11.09;89.38;101900.75;20931485;28;20041;-67
2022/11/10 19:37:21;;;;;;;10.05;1.70;;;;;;;11.08;89.53;101924.34;21018694;28;20043;-66
2022/11/10 19:47:43;;;;;;;14.15;2.05;;;;;;;11.12;89.34;101926.72;20998813;28;20044;-64
2022/11/10 19:58:04;;;;;;;12.15;2.10;;;;;;;11.00;89.85;101929.94;21000197;28;20039;-66
2022/11/10 20:08:27;;;;;;;7.97;1.58;;;;;;;10.76;90.40;101949.38;21000823;28;20037;-66
2022/11/10 20:18:48;;;;;;;7.95;1.85;;;;;;;10.58;91.47;101960.66;21002650;28;20097;-65
2022/11/10 20:29:10;;;;;;;5.90;1.77;;;;;;;10.36;92.81;101958.25;21006490;28;20305;-67
2022/11/10 20:39:31;;;;;;;5.47;1.83;;;;;;;10.19;92.92;101958.19;20999990;28;20298;-66
2022/11/10 20:49:53;;;;;;;7.65;1.67;;;;;;;10.16;93.02;101955.72;20991559;28;20135;-66
2022/11/10 21:00:15;;;;;;;5.87;1.50;;;;;;;10.06;92.98;101959.63;21008879;28;20498;-67
2022/11/10 21:10:36;;;;;;;5.28;1.80;;;;;;;9.97;93.06;101978.25;20996930;28;20424;-66
2022/11/10 21:20:58;;;;;;;5.67;1.50;;;;;;;9.97;93.50;101983.47;21012741;28;20496;-66
2022/11/10 21:31:20;;;;;;;;;;;;;;;10.00;93.56;101996.38;20999203;28;20040;-64
2022/11/10 21:41:43;;;;;;;7.43;1.70;;;;;;;10.12;93.49;102012.31;20993452;28;19924;-67
2022/11/10 21:52:04;;;;;;;8.10;1.87;;;;;;;10.12;93.27;102029.72;21011729;28;20514;-66
2022/11/10 22:02:26;;;;;;;6.10;1.90;;;;;;;10.28;92.18;102018.53;21013573;28;20048;-67
2022/11/10 22:34:08;;;;;;;8.57;2.08;;;;;;;10.30;94.17;102011.50;21021091;28;20079;-67
2022/11/10 22:44:29;;;;;;;12.37;2.13;;;;;;;10.30;94.28;102024.53;21018289;28;20048;-66
2022/11/10 22:54:51;;;;;;;10.88;1.73;;;;;;;10.33;94.15;102036.59;21016700;28;20282;-67
2022/11/10 23:05:13;;;;;;;4.77;1.87;;;;;;;10.31;94.70;102033.22;21022271;28;20074;-66
2022/11/10 23:15:34;;;;;;;6.93;2.40;;;;;;;10.36;94.84;102045.13;21016450;28;20063;-66
2022/11/10 23:26:17;;;;;;;8.40;2.33;;;;;;;10.41;94.87;102068.38;21012198;28;20052;-65
2022/11/10 23:36:38;;;;;;;9.57;2.75;;;;;;;10.34;94.70;102070.41;21019935;28;20279;-67
2022/11/10 23:47:00;;;;;;;7.20;2.78;;;;;;;10.33;95.16;102078.31;21009479;28;20071;-66
2022/11/10 23:57:21;;;;;;;12.90;2.47;;;;;;;10.32;95.13;102097.47;21006759;28;20032;-66
